sensor_id;sensor_type;location;lat;lon;timestamp;pressure;altitude;pressure_sealevel;temperature;humidity
79376;BME280;68846;53.150;18.136;2024-03-08T00:01:22;102135.42;;;0.70;71.39
79376;BME280;68846;53.150;18.136;2024-03-08T00:03:50;102137.27;;;0.69;71.36
79376;BME280;68846;53.150;18.136;2024-03-08T00:10:28;102128.83;;;0.65;71.35
79376;BME280;68846;53.150;18.136;2024-03-08T00:12:56;102123.91;;;0.64;71.68
79376;BME280;68846;53.150;18.136;2024-03-08T00:15:25;102127.11;;;0.63;71.80
79376;BME280;68846;53.150;18.136;2024-03-08T00:21:37;102126.02;;;0.62;71.81
79376;BME280;68846;53.150;18.136;2024-03-08T00:29:15;102125.70;;;0.63;72.18
79376;BME280;68846;53.150;18.136;2024-03-08T00:32:33;102124.06;;;0.61;71.95
79376;BME280;68846;53.150;18.136;2024-03-08T00:35:01;102124.98;;;0.59;72.33
79376;BME280;68846;53.150;18.136;2024-03-08T00:37:29;102126.17;;;0.59;72.39
79376;BME280;68846;53.150;18.136;2024-03-08T00:39:57;102123.71;;;0.59;72.38
79376;BME280;68846;53.150;18.136;2024-03-08T00:42:26;102122.85;;;0.59;72.43
79376;BME280;68846;53.150;18.136;2024-03-08T00:44:54;102120.76;;;0.59;72.83
79376;BME280;68846;53.150;18.136;2024-03-08T00:47:22;102120.74;;;0.59;72.56
79376;BME280;68846;53.150;18.136;2024-03-08T00:53:57;102118.94;;;0.53;72.77
79376;BME280;68846;53.150;18.136;2024-03-08T00:56:25;102120.96;;;0.49;72.49
79376;BME280;68846;53.150;18.136;2024-03-08T00:58:53;102121.14;;;0.45;72.79
79376;BME280;68846;53.150;18.136;2024-03-08T01:05:08;102115.59;;;0.41;72.81
79376;BME280;68846;53.150;18.136;2024-03-08T01:08:19;102113.16;;;0.41;73.03
79376;BME280;68846;53.150;18.136;2024-03-08T01:10:47;102111.45;;;0.41;73.11
79376;BME280;68846;53.150;18.136;2024-03-08T01:13:26;102104.63;;;0.40;73.17
79376;BME280;68846;53.150;18.136;2024-03-08T01:15:57;102105.98;;;0.37;73.72
79376;BME280;68846;53.150;18.136;2024-03-08T01:18:54;102104.77;;;0.35;73.89
79376;BME280;68846;53.150;18.136;2024-03-08T01:22:12;102098.90;;;0.33;73.78
79376;BME280;68846;53.150;18.136;2024-03-08T01:24:39;102096.98;;;0.33;73.98
79376;BME280;68846;53.150;18.136;2024-03-08T01:27:07;102093.35;;;0.33;73.96
79376;BME280;68846;53.150;18.136;2024-03-08T01:29:36;102090.95;;;0.31;73.85
79376;BME280;68846;53.150;18.136;2024-03-08T01:32:05;102090.40;;;0.30;73.98
79376;BME280;68846;53.150;18.136;2024-03-08T01:34:33;102088.95;;;0.27;74.45
79376;BME280;68846;53.150;18.136;2024-03-08T01:37:01;102090.98;;;0.26;74.53
79376;BME280;68846;53.150;18.136;2024-03-08T01:39:30;102092.08;;;0.27;74.53
79376;BME280;68846;53.150;18.136;2024-03-08T01:41:57;102089.52;;;0.28;74.21
79376;BME280;68846;53.150;18.136;2024-03-08T01:44:26;102090.05;;;0.28;74.12
79376;BME280;68846;53.150;18.136;2024-03-08T01:46:54;102086.58;;;0.28;74.23
79376;BME280;68846;53.150;18.136;2024-03-08T01:49:22;102087.42;;;0.28;74.60
79376;BME280;68846;53.150;18.136;2024-03-08T01:51:51;102081.45;;;0.29;74.44
79376;BME280;68846;53.150;18.136;2024-03-08T01:59:15;102072.63;;;0.29;74.48
79376;BME280;68846;53.150;18.136;2024-03-08T02:01:44;102070.30;;;0.30;74.74
79376;BME280;68846;53.150;18.136;2024-03-08T02:04:12;102067.23;;;0.29;74.93
79376;BME280;68846;53.150;18.136;2024-03-08T02:10:48;102065.87;;;0.31;74.85
79376;BME280;68846;53.150;18.136;2024-03-08T02:13:16;102064.59;;;0.31;74.66
79376;BME280;68846;53.150;18.136;2024-03-08T02:15:57;102062.80;;;0.30;74.58
79376;BME280;68846;53.150;18.136;2024-03-08T02:19:58;102058.20;;;0.29;74.83
79376;BME280;68846;53.150;18.136;2024-03-08T02:22:30;102058.13;;;0.27;74.96
79376;BME280;68846;53.150;18.136;2024-03-08T02:25:02;102055.81;;;0.26;75.17
79376;BME280;68846;53.150;18.136;2024-03-08T02:27:30;102055.45;;;0.26;74.74
79376;BME280;68846;53.150;18.136;2024-03-08T02:29:58;102057.83;;;0.25;74.97
79376;BME280;68846;53.150;18.136;2024-03-08T02:32:28;102056.79;;;0.25;75.24
79376;BME280;68846;53.150;18.136;2024-03-08T02:34:56;102053.83;;;0.25;75.14
79376;BME280;68846;53.150;18.136;2024-03-08T02:37:24;102054.37;;;0.25;75.41
79376;BME280;68846;53.150;18.136;2024-03-08T02:39:52;102049.03;;;0.26;75.16
79376;BME280;68846;53.150;18.136;2024-03-08T02:42:20;102052.09;;;0.25;74.91
79376;BME280;68846;53.150;18.136;2024-03-08T02:44:48;102050.73;;;0.23;74.98
79376;BME280;68846;53.150;18.136;2024-03-08T02:48:09;102050.62;;;0.22;75.11
79376;BME280;68846;53.150;18.136;2024-03-08T02:50:37;102050.16;;;0.20;75.31
79376;BME280;68846;53.150;18.136;2024-03-08T02:53:08;102050.05;;;0.19;75.02
79376;BME280;68846;53.150;18.136;2024-03-08T02:55:38;102048.85;;;0.17;75.26
79376;BME280;68846;53.150;18.136;2024-03-08T02:58:07;102048.13;;;0.16;75.14
79376;BME280;68846;53.150;18.136;2024-03-08T03:00:38;102049.15;;;0.16;75.18
79376;BME280;68846;53.150;18.136;2024-03-08T03:03:08;102050.78;;;0.15;75.17
79376;BME280;68846;53.150;18.136;2024-03-08T03:05:36;102046.45;;;0.15;75.22
79376;BME280;68846;53.150;18.136;2024-03-08T03:08:04;102047.85;;;0.15;75.24
79376;BME280;68846;53.150;18.136;2024-03-08T03:10:36;102045.67;;;0.14;75.17
79376;BME280;68846;53.150;18.136;2024-03-08T03:13:05;102045.02;;;0.12;75.38
79376;BME280;68846;53.150;18.136;2024-03-08T03:15:32;102046.25;;;0.10;75.69
79376;BME280;68846;53.150;18.136;2024-03-08T03:18:01;102045.86;;;0.09;75.35
79376;BME280;68846;53.150;18.136;2024-03-08T03:20:29;102047.41;;;0.09;75.58
79376;BME280;68846;53.150;18.136;2024-03-08T03:23:23;102041.86;;;0.09;75.59
79376;BME280;68846;53.150;18.136;2024-03-08T03:25:51;102041.81;;;0.08;75.60
79376;BME280;68846;53.150;18.136;2024-03-08T03:28:19;102038.70;;;0.08;75.66
79376;BME280;68846;53.150;18.136;2024-03-08T03:30:49;102042.59;;;0.07;75.69
79376;BME280;68846;53.150;18.136;2024-03-08T03:33:42;102037.89;;;0.05;75.82
79376;BME280;68846;53.150;18.136;2024-03-08T03:36:10;102038.70;;;0.04;75.86
79376;BME280;68846;53.150;18.136;2024-03-08T03:42:22;102034.98;;;0.00;75.92
79376;BME280;68846;53.150;18.136;2024-03-08T03:44:53;102032.95;;;-0.01;75.82
79376;BME280;68846;53.150;18.136;2024-03-08T03:47:20;102032.77;;;-0.01;75.87
79376;BME280;68846;53.150;18.136;2024-03-08T03:49:49;102034.17;;;-0.01;75.96
79376;BME280;68846;53.150;18.136;2024-03-08T03:56:00;102032.15;;;-0.03;76.07
79376;BME280;68846;53.150;18.136;2024-03-08T04:02:40;102031.45;;;-0.07;76.15
79376;BME280;68846;53.150;18.136;2024-03-08T04:08:51;102030.60;;;-0.10;76.33
79376;BME280;68846;53.150;18.136;2024-03-08T04:11:19;102030.89;;;-0.11;76.35
79376;BME280;68846;53.150;18.136;2024-03-08T04:17:30;102028.49;;;-0.14;76.71
79376;BME280;68846;53.150;18.136;2024-03-08T04:19:58;102024.80;;;-0.15;76.64
79376;BME280;68846;53.150;18.136;2024-03-08T04:27:23;102026.70;;;-0.20;77.06
79376;BME280;68846;53.150;18.136;2024-03-08T04:33:34;102018.67;;;-0.14;76.91
79376;BME280;68846;53.150;18.136;2024-03-08T04:36:05;102013.54;;;-0.13;77.11
79376;BME280;68846;53.150;18.136;2024-03-08T04:38:33;102014.22;;;-0.11;76.82
79376;BME280;68846;53.150;18.136;2024-03-08T04:41:00;102014.53;;;-0.12;76.95
79376;BME280;68846;53.150;18.136;2024-03-08T04:43:30;102012.98;;;-0.09;77.13
79376;BME280;68846;53.150;18.136;2024-03-08T04:46:48;102009.06;;;-0.06;76.74
79376;BME280;68846;53.150;18.136;2024-03-08T04:49:17;102008.50;;;-0.07;76.86
79376;BME280;68846;53.150;18.136;2024-03-08T04:51:45;102008.50;;;-0.11;77.03
79376;BME280;68846;53.150;18.136;2024-03-08T04:54:38;102010.80;;;-0.17;77.34
79376;BME280;68846;53.150;18.136;2024-03-08T04:57:06;102011.22;;;-0.23;77.49
79376;BME280;68846;53.150;18.136;2024-03-08T04:59:35;102013.02;;;-0.24;77.44
79376;BME280;68846;53.150;18.136;2024-03-08T05:05:48;102004.54;;;-0.27;77.23
79376;BME280;68846;53.150;18.136;2024-03-08T05:08:16;102006.48;;;-0.26;76.98
79376;BME280;68846;53.150;18.136;2024-03-08T05:10:46;102005.59;;;-0.27;77.24
79376;BME280;68846;53.150;18.136;2024-03-08T05:13:14;102008.59;;;-0.30;77.75
79376;BME280;68846;53.150;18.136;2024-03-08T05:15:42;102008.52;;;-0.36;77.74
79376;BME280;68846;53.150;18.136;2024-03-08T05:18:09;102011.68;;;-0.40;78.02
79376;BME280;68846;53.150;18.136;2024-03-08T05:20:39;102009.54;;;-0.43;77.65
79376;BME280;68846;53.150;18.136;2024-03-08T05:23:08;102008.26;;;-0.44;77.90
79376;BME280;68846;53.150;18.136;2024-03-08T05:25:37;102010.13;;;-0.45;78.15
79376;BME280;68846;53.150;18.136;2024-03-08T05:28:05;102011.59;;;-0.43;78.23
79376;BME280;68846;53.150;18.136;2024-03-08T05:30:33;102010.39;;;-0.43;78.10
79376;BME280;68846;53.150;18.136;2024-03-08T05:33:00;102009.91;;;-0.43;78.33
79376;BME280;68846;53.150;18.136;2024-03-08T05:39:39;102005.50;;;-0.37;78.16
79376;BME280;68846;53.150;18.136;2024-03-08T05:42:08;102007.00;;;-0.38;78.27
79376;BME280;68846;53.150;18.136;2024-03-08T05:49:32;102005.44;;;-0.49;78.79
79376;BME280;68846;53.150;18.136;2024-03-08T05:52:02;102010.43;;;-0.52;78.58
79376;BME280;68846;53.150;18.136;2024-03-08T05:55:20;102011.55;;;-0.55;78.81
79376;BME280;68846;53.150;18.136;2024-03-08T05:57:49;102011.30;;;-0.59;78.96
79376;BME280;68846;53.150;18.136;2024-03-08T06:00:18;102010.56;;;-0.64;79.32
79376;BME280;68846;53.150;18.136;2024-03-08T06:02:46;102011.38;;;-0.69;79.07
79376;BME280;68846;53.150;18.136;2024-03-08T06:05:14;102010.52;;;-0.73;79.35
79376;BME280;68846;53.150;18.136;2024-03-08T06:07:42;102010.55;;;-0.75;79.50
79376;BME280;68846;53.150;18.136;2024-03-08T06:10:11;102011.64;;;-0.74;79.80
79376;BME280;68846;53.150;18.136;2024-03-08T06:12:40;102010.30;;;-0.73;79.30
79376;BME280;68846;53.150;18.136;2024-03-08T06:15:09;102012.48;;;-0.70;79.64
79376;BME280;68846;53.150;18.136;2024-03-08T06:17:37;102009.64;;;-0.69;79.58
79376;BME280;68846;53.150;18.136;2024-03-08T06:20:06;102014.27;;;-0.72;79.36
79376;BME280;68846;53.150;18.136;2024-03-08T06:22:40;102014.21;;;-0.74;79.42
79376;BME280;68846;53.150;18.136;2024-03-08T06:25:09;102016.45;;;-0.75;79.80
79376;BME280;68846;53.150;18.136;2024-03-08T06:27:42;102018.64;;;-0.73;79.67
79376;BME280;68846;53.150;18.136;2024-03-08T06:30:14;102017.39;;;-0.74;79.60
79376;BME280;68846;53.150;18.136;2024-03-08T06:36:26;102018.17;;;-0.70;79.76
79376;BME280;68846;53.150;18.136;2024-03-08T06:38:54;102021.17;;;-0.74;79.54
79376;BME280;68846;53.150;18.136;2024-03-08T06:41:22;102017.54;;;-0.76;79.87
79376;BME280;68846;53.150;18.136;2024-03-08T06:43:50;102014.46;;;-0.76;79.85
79376;BME280;68846;53.150;18.136;2024-03-08T06:46:19;102015.42;;;-0.72;79.80
79376;BME280;68846;53.150;18.136;2024-03-08T06:48:48;102015.02;;;-0.71;79.72
79376;BME280;68846;53.150;18.136;2024-03-08T06:51:17;102013.92;;;-0.67;79.63
79376;BME280;68846;53.150;18.136;2024-03-08T06:53:45;102014.01;;;-0.62;79.33
79376;BME280;68846;53.150;18.136;2024-03-08T06:56:13;102013.90;;;-0.52;79.53
79376;BME280;68846;53.150;18.136;2024-03-08T06:58:42;102014.45;;;-0.44;79.48
79376;BME280;68846;53.150;18.136;2024-03-08T07:01:10;102013.73;;;-0.42;79.35
79376;BME280;68846;53.150;18.136;2024-03-08T07:03:41;102011.84;;;-0.40;79.48
79376;BME280;68846;53.150;18.136;2024-03-08T07:06:11;102015.66;;;-0.33;79.43
79376;BME280;68846;53.150;18.136;2024-03-08T07:08:39;102017.62;;;-0.23;79.53
79376;BME280;68846;53.150;18.136;2024-03-08T07:11:07;102018.11;;;-0.17;79.11
79376;BME280;68846;53.150;18.136;2024-03-08T07:13:35;102017.66;;;-0.16;78.89
79376;BME280;68846;53.150;18.136;2024-03-08T07:16:05;102013.86;;;-0.16;78.79
79376;BME280;68846;53.150;18.136;2024-03-08T07:18:32;102013.88;;;-0.11;78.87
79376;BME280;68846;53.150;18.136;2024-03-08T07:21:01;102011.86;;;-0.05;78.74
79376;BME280;68846;53.150;18.136;2024-03-08T07:23:31;102012.48;;;0.00;78.74
79376;BME280;68846;53.150;18.136;2024-03-08T07:26:45;102012.73;;;0.11;78.59
79376;BME280;68846;53.150;18.136;2024-03-08T07:29:17;102013.05;;;0.17;78.81
79376;BME280;68846;53.150;18.136;2024-03-08T07:31:45;102011.34;;;0.23;78.46
79376;BME280;68846;53.150;18.136;2024-03-08T07:34:22;102008.63;;;0.28;78.20
79376;BME280;68846;53.150;18.136;2024-03-08T07:36:50;102009.98;;;0.33;78.59
79376;BME280;68846;53.150;18.136;2024-03-08T07:39:18;102007.36;;;0.37;78.47
79376;BME280;68846;53.150;18.136;2024-03-08T07:41:46;102006.12;;;0.41;78.67
79376;BME280;68846;53.150;18.136;2024-03-08T07:44:14;102005.02;;;0.45;78.36
79376;BME280;68846;53.150;18.136;2024-03-08T07:46:43;102005.31;;;0.47;78.59
79376;BME280;68846;53.150;18.136;2024-03-08T07:49:11;102000.73;;;0.48;78.43
79376;BME280;68846;53.150;18.136;2024-03-08T07:51:39;102001.52;;;0.52;78.56
79376;BME280;68846;53.150;18.136;2024-03-08T07:54:07;101997.29;;;0.56;78.58
79376;BME280;68846;53.150;18.136;2024-03-08T07:56:36;102000.48;;;0.59;78.40
79376;BME280;68846;53.150;18.136;2024-03-08T07:59:05;101996.81;;;0.64;78.23
79376;BME280;68846;53.150;18.136;2024-03-08T08:01:33;101997.92;;;0.69;78.24
79376;BME280;68846;53.150;18.136;2024-03-08T08:04:04;101992.77;;;0.75;78.10
79376;BME280;68846;53.150;18.136;2024-03-08T08:06:32;101990.83;;;0.79;78.20
79376;BME280;68846;53.150;18.136;2024-03-08T08:09:26;101990.38;;;0.83;78.10
79376;BME280;68846;53.150;18.136;2024-03-08T08:12:01;101989.84;;;0.87;78.06
79376;BME280;68846;53.150;18.136;2024-03-08T08:14:30;101986.83;;;0.91;77.86
79376;BME280;68846;53.150;18.136;2024-03-08T08:16:58;101986.93;;;0.96;77.53
79376;BME280;68846;53.150;18.136;2024-03-08T08:19:31;101985.38;;;0.98;77.30
79376;BME280;68846;53.150;18.136;2024-03-08T08:21:59;101987.66;;;0.98;77.67
79376;BME280;68846;53.150;18.136;2024-03-08T08:24:27;101984.30;;;1.00;77.36
79376;BME280;68846;53.150;18.136;2024-03-08T08:26:55;101989.06;;;1.03;77.44
79376;BME280;68846;53.150;18.136;2024-03-08T08:29:24;101987.91;;;1.09;77.17
79376;BME280;68846;53.150;18.136;2024-03-08T08:31:52;101987.11;;;1.15;77.12
79376;BME280;68846;53.150;18.136;2024-03-08T08:34:20;101987.66;;;1.21;77.25
79376;BME280;68846;53.150;18.136;2024-03-08T08:36:51;101984.59;;;1.26;77.43
79376;BME280;68846;53.150;18.136;2024-03-08T08:39:20;101982.55;;;1.29;76.63
79376;BME280;68846;53.150;18.136;2024-03-08T08:41:50;101983.20;;;1.31;76.76
79376;BME280;68846;53.150;18.136;2024-03-08T08:44:18;101982.89;;;1.37;76.85
79376;BME280;68846;53.150;18.136;2024-03-08T08:46:46;101980.79;;;1.42;76.59
79376;BME280;68846;53.150;18.136;2024-03-08T08:49:13;101976.86;;;1.48;76.84
79376;BME280;68846;53.150;18.136;2024-03-08T08:51:50;101976.80;;;1.55;76.53
79376;BME280;68846;53.150;18.136;2024-03-08T08:54:18;101974.96;;;1.61;76.30
79376;BME280;68846;53.150;18.136;2024-03-08T08:56:47;101970.66;;;1.67;76.17
79376;BME280;68846;53.150;18.136;2024-03-08T08:59:19;101971.61;;;1.73;76.19
79376;BME280;68846;53.150;18.136;2024-03-08T09:01:49;101972.71;;;1.79;76.28
79376;BME280;68846;53.150;18.136;2024-03-08T09:04:19;101973.04;;;1.84;76.23
79376;BME280;68846;53.150;18.136;2024-03-08T09:06:49;101968.30;;;1.88;75.89
79376;BME280;68846;53.150;18.136;2024-03-08T09:09:16;101965.54;;;1.94;75.70
79376;BME280;68846;53.150;18.136;2024-03-08T09:11:44;101962.81;;;2.00;75.58
79376;BME280;68846;53.150;18.136;2024-03-08T09:14:13;101960.60;;;2.09;75.53
79376;BME280;68846;53.150;18.136;2024-03-08T09:16:42;101956.09;;;2.17;75.62
79376;BME280;68846;53.150;18.136;2024-03-08T09:19:10;101953.81;;;2.25;75.37
79376;BME280;68846;53.150;18.136;2024-03-08T09:21:38;101955.70;;;2.32;75.05
79376;BME280;68846;53.150;18.136;2024-03-08T09:24:07;101954.67;;;2.41;74.92
79376;BME280;68846;53.150;18.136;2024-03-08T09:26:35;101953.70;;;2.47;74.35
79376;BME280;68846;53.150;18.136;2024-03-08T09:29:03;101951.01;;;2.54;74.28
79376;BME280;68846;53.150;18.136;2024-03-08T09:31:33;101948.90;;;2.62;73.88
79376;BME280;68846;53.150;18.136;2024-03-08T09:34:03;101949.95;;;2.71;73.95
79376;BME280;68846;53.150;18.136;2024-03-08T09:36:31;101947.96;;;2.78;73.68
79376;BME280;68846;53.150;18.136;2024-03-08T09:39:00;101950.83;;;2.84;73.79
79376;BME280;68846;53.150;18.136;2024-03-08T09:41:28;101946.88;;;2.91;73.72
79376;BME280;68846;53.150;18.136;2024-03-08T09:43:58;101943.09;;;2.97;73.37
79376;BME280;68846;53.150;18.136;2024-03-08T09:46:27;101939.48;;;3.04;73.48
79376;BME280;68846;53.150;18.136;2024-03-08T09:48:55;101937.33;;;3.08;72.97
79376;BME280;68846;53.150;18.136;2024-03-08T09:51:28;101937.27;;;3.13;72.26
79376;BME280;68846;53.150;18.136;2024-03-08T09:53:56;101934.95;;;3.18;72.20
79376;BME280;68846;53.150;18.136;2024-03-08T09:56:26;101934.65;;;3.21;72.12
79376;BME280;68846;53.150;18.136;2024-03-08T09:58:55;101928.58;;;3.25;71.53
79376;BME280;68846;53.150;18.136;2024-03-08T10:01:53;101926.13;;;3.30;70.73
79376;BME280;68846;53.150;18.136;2024-03-08T10:04:25;101923.80;;;3.35;70.62
79376;BME280;68846;53.150;18.136;2024-03-08T10:06:58;101923.94;;;3.40;70.07
79376;BME280;68846;53.150;18.136;2024-03-08T10:09:27;101921.84;;;3.46;69.43
79376;BME280;68846;53.150;18.136;2024-03-08T10:11:59;101920.45;;;3.52;69.14
79376;BME280;68846;53.150;18.136;2024-03-08T10:14:27;101916.23;;;3.60;69.47
79376;BME280;68846;53.150;18.136;2024-03-08T10:16:55;101914.70;;;3.67;69.47
79376;BME280;68846;53.150;18.136;2024-03-08T10:19:27;101915.31;;;3.77;69.46
79376;BME280;68846;53.150;18.136;2024-03-08T10:21:57;101917.92;;;3.87;68.82
79376;BME280;68846;53.150;18.136;2024-03-08T10:24:27;101916.85;;;3.95;68.23
79376;BME280;68846;53.150;18.136;2024-03-08T10:27:03;101914.42;;;4.01;68.21
79376;BME280;68846;53.150;18.136;2024-03-08T10:29:34;101909.11;;;4.06;68.09
79376;BME280;68846;53.150;18.136;2024-03-08T10:32:02;101907.14;;;4.11;67.85
79376;BME280;68846;53.150;18.136;2024-03-08T10:34:33;101903.34;;;4.18;67.71
79376;BME280;68846;53.150;18.136;2024-03-08T10:37:04;101902.65;;;4.27;67.34
79376;BME280;68846;53.150;18.136;2024-03-08T10:39:36;101902.36;;;4.35;67.45
79376;BME280;68846;53.150;18.136;2024-03-08T10:42:05;101898.41;;;4.42;67.35
79376;BME280;68846;53.150;18.136;2024-03-08T10:44:49;101898.92;;;4.48;66.60
79376;BME280;68846;53.150;18.136;2024-03-08T10:47:26;101897.92;;;4.52;66.48
79376;BME280;68846;53.150;18.136;2024-03-08T10:50:22;101898.01;;;4.57;65.88
79376;BME280;68846;53.150;18.136;2024-03-08T10:52:52;101898.89;;;4.64;63.70
79376;BME280;68846;53.150;18.136;2024-03-08T10:55:21;101895.07;;;4.67;63.51
79376;BME280;68846;53.150;18.136;2024-03-08T10:57:50;101892.08;;;4.70;63.16
79376;BME280;68846;53.150;18.136;2024-03-08T11:00:19;101886.30;;;4.73;62.57
79376;BME280;68846;53.150;18.136;2024-03-08T11:02:56;101886.34;;;4.77;62.34
79376;BME280;68846;53.150;18.136;2024-03-08T11:08:54;101880.98;;;4.88;62.65
79376;BME280;68846;53.150;18.136;2024-03-08T11:11:30;101877.92;;;4.96;62.97
79376;BME280;68846;53.150;18.136;2024-03-08T11:14:01;101878.94;;;5.05;62.95
79376;BME280;68846;53.150;18.136;2024-03-08T11:19:27;101872.13;;;5.22;60.83
79376;BME280;68846;53.150;18.136;2024-03-08T11:22:05;101866.55;;;5.36;60.12
79376;BME280;68846;53.150;18.136;2024-03-08T11:24:39;101863.00;;;5.49;60.33
79376;BME280;68846;53.150;18.136;2024-03-08T11:27:10;101862.83;;;5.59;60.02
79376;BME280;68846;53.150;18.136;2024-03-08T11:29:39;101855.15;;;5.70;59.63
79376;BME280;68846;53.150;18.136;2024-03-08T11:32:12;101853.55;;;5.77;59.57
79376;BME280;68846;53.150;18.136;2024-03-08T11:34:47;101852.39;;;5.78;59.66
79376;BME280;68846;53.150;18.136;2024-03-08T11:37:18;101852.43;;;5.79;59.44
79376;BME280;68846;53.150;18.136;2024-03-08T11:39:54;101843.98;;;5.81;59.95
79376;BME280;68846;53.150;18.136;2024-03-08T11:42:30;101844.33;;;5.88;60.31
79376;BME280;68846;53.150;18.136;2024-03-08T11:44:59;101840.16;;;6.03;59.65
79376;BME280;68846;53.150;18.136;2024-03-08T11:47:29;101838.80;;;6.15;60.54
79376;BME280;68846;53.150;18.136;2024-03-08T11:49:59;101828.94;;;6.24;60.04
79376;BME280;68846;53.150;18.136;2024-03-08T11:52:26;101831.09;;;6.30;60.14
79376;BME280;68846;53.150;18.136;2024-03-08T11:54:55;101827.65;;;6.34;59.99
79376;BME280;68846;53.150;18.136;2024-03-08T11:57:24;101823.45;;;6.38;60.27
79376;BME280;68846;53.150;18.136;2024-03-08T11:59:53;101816.98;;;6.42;60.19
79376;BME280;68846;53.150;18.136;2024-03-08T12:02:22;101816.41;;;6.49;60.92
79376;BME280;68846;53.150;18.136;2024-03-08T12:04:58;101812.71;;;6.53;60.31
79376;BME280;68846;53.150;18.136;2024-03-08T12:07:27;101809.95;;;6.57;60.67
79376;BME280;68846;53.150;18.136;2024-03-08T12:10:34;101806.04;;;6.63;59.08
79376;BME280;68846;53.150;18.136;2024-03-08T12:13:02;101803.48;;;6.68;59.20
79376;BME280;68846;53.150;18.136;2024-03-08T12:15:31;101796.16;;;6.74;58.75
79376;BME280;68846;53.150;18.136;2024-03-08T12:18:01;101792.16;;;6.78;58.88
79376;BME280;68846;53.150;18.136;2024-03-08T12:20:29;101791.84;;;6.83;59.74
79376;BME280;68846;53.150;18.136;2024-03-08T12:23:02;101792.09;;;6.88;60.08
79376;BME280;68846;53.150;18.136;2024-03-08T12:25:32;101791.40;;;7.01;59.57
79376;BME280;68846;53.150;18.136;2024-03-08T12:28:13;101780.86;;;7.16;58.66
79376;BME280;68846;53.150;18.136;2024-03-08T12:30:52;101787.39;;;7.39;58.76
79376;BME280;68846;53.150;18.136;2024-03-08T12:33:21;101786.81;;;7.54;57.71
79376;BME280;68846;53.150;18.136;2024-03-08T12:35:54;101783.08;;;7.57;57.12
79376;BME280;68846;53.150;18.136;2024-03-08T12:38:23;101780.62;;;7.57;56.79
79376;BME280;68846;53.150;18.136;2024-03-08T12:40:58;101782.10;;;7.59;56.36
79376;BME280;68846;53.150;18.136;2024-03-08T12:43:26;101778.61;;;7.64;57.22
79376;BME280;68846;53.150;18.136;2024-03-08T12:45:57;101774.52;;;7.75;57.49
79376;BME280;68846;53.150;18.136;2024-03-08T12:48:25;101768.53;;;7.89;56.30
79376;BME280;68846;53.150;18.136;2024-03-08T12:50:54;101768.72;;;7.98;56.17
79376;BME280;68846;53.150;18.136;2024-03-08T12:53:22;101763.50;;;8.13;56.52
79376;BME280;68846;53.150;18.136;2024-03-08T12:55:52;101760.63;;;8.38;56.17
79376;BME280;68846;53.150;18.136;2024-03-08T12:58:20;101755.28;;;8.70;55.73
79376;BME280;68846;53.150;18.136;2024-03-08T13:00:48;101748.20;;;8.93;55.10
79376;BME280;68846;53.150;18.136;2024-03-08T13:03:18;101748.19;;;9.13;53.57
79376;BME280;68846;53.150;18.136;2024-03-08T13:05:45;101746.00;;;9.32;53.17
79376;BME280;68846;53.150;18.136;2024-03-08T13:08:13;101745.38;;;9.51;51.76
79376;BME280;68846;53.150;18.136;2024-03-08T13:10:42;101740.96;;;9.67;51.89
79376;BME280;68846;53.150;18.136;2024-03-08T13:13:11;101741.11;;;9.89;53.08
79376;BME280;68846;53.150;18.136;2024-03-08T13:15:44;101737.38;;;10.28;52.86
79376;BME280;68846;53.150;18.136;2024-03-08T13:18:13;101729.40;;;10.70;51.33
79376;BME280;68846;53.150;18.136;2024-03-08T13:20:43;101728.17;;;11.04;50.48
79376;BME280;68846;53.150;18.136;2024-03-08T13:23:19;101727.36;;;11.21;48.83
79376;BME280;68846;53.150;18.136;2024-03-08T13:25:47;101725.67;;;11.31;49.12
79376;BME280;68846;53.150;18.136;2024-03-08T13:28:16;101723.02;;;11.52;48.47
79376;BME280;68846;53.150;18.136;2024-03-08T13:31:04;101722.31;;;11.75;49.39
79376;BME280;68846;53.150;18.136;2024-03-08T13:33:38;101719.02;;;12.00;47.86
79376;BME280;68846;53.150;18.136;2024-03-08T13:36:09;101713.22;;;12.11;47.27
79376;BME280;68846;53.150;18.136;2024-03-08T13:39:03;101706.39;;;12.22;46.35
79376;BME280;68846;53.150;18.136;2024-03-08T13:41:52;101705.23;;;12.34;47.01
79376;BME280;68846;53.150;18.136;2024-03-08T13:44:20;101697.09;;;12.60;46.76
79376;BME280;68846;53.150;18.136;2024-03-08T13:47:38;101701.40;;;12.84;45.67
79376;BME280;68846;53.150;18.136;2024-03-08T13:50:10;101694.98;;;13.00;45.40
79376;BME280;68846;53.150;18.136;2024-03-08T13:52:45;101690.70;;;13.19;45.05
79376;BME280;68846;53.150;18.136;2024-03-08T13:55:13;101685.23;;;13.30;44.28
79376;BME280;68846;53.150;18.136;2024-03-08T13:57:42;101686.09;;;13.28;43.12
79376;BME280;68846;53.150;18.136;2024-03-08T14:00:11;101683.74;;;13.36;44.15
79376;BME280;68846;53.150;18.136;2024-03-08T14:02:42;101681.48;;;13.51;43.64
79376;BME280;68846;53.150;18.136;2024-03-08T14:05:10;101678.98;;;13.61;42.94
79376;BME280;68846;53.150;18.136;2024-03-08T14:07:39;101677.05;;;13.61;42.32
79376;BME280;68846;53.150;18.136;2024-03-08T14:10:08;101675.68;;;13.66;42.15
79376;BME280;68846;53.150;18.136;2024-03-08T14:12:37;101670.51;;;13.76;41.78
79376;BME280;68846;53.150;18.136;2024-03-08T14:15:06;101671.86;;;13.85;41.85
79376;BME280;68846;53.150;18.136;2024-03-08T14:17:33;101673.20;;;13.91;40.86
79376;BME280;68846;53.150;18.136;2024-03-08T14:20:01;101667.83;;;13.87;40.39
79376;BME280;68846;53.150;18.136;2024-03-08T14:22:29;101666.91;;;13.99;41.42
79376;BME280;68846;53.150;18.136;2024-03-08T14:24:59;101661.22;;;14.26;40.51
79376;BME280;68846;53.150;18.136;2024-03-08T14:27:26;101662.85;;;14.28;39.76
79376;BME280;68846;53.150;18.136;2024-03-08T14:29:54;101658.52;;;14.24;38.82
79376;BME280;68846;53.150;18.136;2024-03-08T14:32:22;101657.79;;;14.21;39.27